createdAt,value
2019-03-21T00:00:18.308Z,48.29
2019-03-21T00:02:50.195Z,48.38
2019-03-21T00:05:22.083Z,48.46
2019-03-21T00:07:53.848Z,48.42
2019-03-21T00:11:07.662Z,48.47
2019-03-21T00:13:39.435Z,48.55
2019-03-21T00:16:13.503Z,48.62
2019-03-21T00:18:45.252Z,48.59
2019-03-21T00:21:17.122Z,48.60
2019-03-21T00:23:48.828Z,48.67
2019-03-21T00:26:20.987Z,48.68
2019-03-21T00:28:52.651Z,48.70
2019-03-21T00:31:24.494Z,48.77
2019-03-21T00:33:56.326Z,48.79
2019-03-21T00:36:28.099Z,48.84
2019-03-21T00:38:59.849Z,48.79
2019-03-21T00:41:32.402Z,48.81
2019-03-21T00:44:04.140Z,48.79
2019-03-21T00:46:36.022Z,48.79
2019-03-21T00:49:07.713Z,48.83
2019-03-21T00:51:39.518Z,48.85
2019-03-21T00:54:11.280Z,48.92
2019-03-21T00:56:43.035Z,49.04
2019-03-21T00:59:14.777Z,49.17
2019-03-21T01:01:46.545Z,49.16
2019-03-21T01:04:18.537Z,49.31
2019-03-21T01:06:52.517Z,49.31
2019-03-21T01:09:25.952Z,49.37
2019-03-21T01:11:57.836Z,49.51
2019-03-21T01:14:30.243Z,49.54
2019-03-21T01:17:02.147Z,49.64
2019-03-21T01:19:33.980Z,49.59
2019-03-21T01:22:05.837Z,49.65
2019-03-21T01:24:37.623Z,49.74
2019-03-21T01:27:09.378Z,49.92
2019-03-21T01:29:41.157Z,49.94
2019-03-21T01:32:12.846Z,49.92
2019-03-21T01:34:44.610Z,50.03
2019-03-21T01:37:16.372Z,50.07
2019-03-21T01:39:48.077Z,50.18
2019-03-21T01:42:19.811Z,50.33
2019-03-21T01:44:51.609Z,50.28
2019-03-21T01:47:23.474Z,50.44
2019-03-21T01:49:55.252Z,50.53
2019-03-21T01:52:27.122Z,50.63
2019-03-21T01:54:58.875Z,50.56
2019-03-21T01:57:30.757Z,50.62
2019-03-21T02:00:02.733Z,50.64
2019-03-21T02:02:35.738Z,50.63
2019-03-21T02:05:08.274Z,50.79
2019-03-21T02:07:40.128Z,51.02
2019-03-21T02:10:13.825Z,50.80
2019-03-21T02:12:45.511Z,50.88
2019-03-21T02:15:17.235Z,50.84
2019-03-21T02:17:49.525Z,50.87
2019-03-21T02:20:21.320Z,50.85
2019-03-21T02:22:53.111Z,50.93
2019-03-21T02:25:26.972Z,50.86
2019-03-21T02:27:59.000Z,50.87
2019-03-21T02:30:32.811Z,50.82
2019-03-21T02:33:08.222Z,50.87
2019-03-21T02:35:40.009Z,50.95
2019-03-21T02:38:11.751Z,51.23
2019-03-21T02:40:43.617Z,51.19
2019-03-21T02:43:15.736Z,51.24
2019-03-21T02:45:47.534Z,51.26
2019-03-21T02:48:19.362Z,51.21
2019-03-21T02:50:51.066Z,51.25
2019-03-21T02:53:22.833Z,51.21
2019-03-21T02:55:54.659Z,51.28
2019-03-21T02:58:26.404Z,51.41
2019-03-21T03:00:58.126Z,51.62
2019-03-21T03:03:30.110Z,51.60
2019-03-21T03:06:01.841Z,51.50
2019-03-21T03:08:33.644Z,51.46
2019-03-21T03:11:05.842Z,51.41
2019-03-21T03:13:37.846Z,51.52
2019-03-21T03:16:09.592Z,51.54
2019-03-21T03:18:41.382Z,51.40
2019-03-21T03:21:13.124Z,51.38
2019-03-21T03:23:44.829Z,51.33
2019-03-21T03:26:16.538Z,51.28
2019-03-21T03:28:48.266Z,51.28
2019-03-21T03:31:19.973Z,51.25
2019-03-21T03:33:51.699Z,51.23
2019-03-21T03:36:23.383Z,51.23
2019-03-21T03:38:55.144Z,51.20
2019-03-21T03:41:27.929Z,51.20
2019-03-21T03:43:59.756Z,51.22
2019-03-21T03:46:32.500Z,51.19
2019-03-21T03:49:04.303Z,51.29
2019-03-21T03:51:36.109Z,51.30
2019-03-21T03:54:07.885Z,51.44
2019-03-21T03:56:39.641Z,51.46
2019-03-21T03:59:11.673Z,51.67
2019-03-21T04:01:43.515Z,51.70
2019-03-21T04:04:15.285Z,51.70
2019-03-21T04:06:47.082Z,51.81
2019-03-21T04:09:18.980Z,51.72
2019-03-21T04:11:50.740Z,51.92
2019-03-21T04:14:23.498Z,51.96
2019-03-21T04:16:55.300Z,51.89
2019-03-21T04:19:27.039Z,51.96
2019-03-21T04:21:58.802Z,52.09
2019-03-21T04:24:30.932Z,52.12
2019-03-21T04:27:02.702Z,52.09
2019-03-21T04:29:34.493Z,52.08
2019-03-21T04:32:06.302Z,52.32
2019-03-21T04:34:38.072Z,52.13
2019-03-21T04:37:09.828Z,52.15
2019-03-21T04:39:41.639Z,52.16
2019-03-21T04:42:13.336Z,52.28
2019-03-21T04:44:45.070Z,52.20
2019-03-21T04:47:16.882Z,52.29
2019-03-21T04:49:48.616Z,52.26
2019-03-21T04:52:20.407Z,52.29
2019-03-21T04:54:52.139Z,52.25
2019-03-21T04:57:24.808Z,52.24
2019-03-21T04:59:56.557Z,52.24
2019-03-21T05:02:28.384Z,52.25
2019-03-21T05:05:00.143Z,52.29
2019-03-21T05:07:31.901Z,52.30
2019-03-21T05:10:03.835Z,52.38
2019-03-21T05:12:35.569Z,52.48
2019-03-21T05:15:10.364Z,52.49
2019-03-21T05:17:42.160Z,52.86
2019-03-21T05:20:16.650Z,53.00
2019-03-21T05:22:48.502Z,52.97
2019-03-21T05:25:20.334Z,53.08
2019-03-21T05:27:52.085Z,53.04
2019-03-21T05:30:27.399Z,53.01
2019-03-21T05:32:59.277Z,53.03
2019-03-21T05:35:30.968Z,53.14
2019-03-21T05:38:02.718Z,53.14
2019-03-21T05:40:34.426Z,53.17
2019-03-21T05:43:09.440Z,53.15
2019-03-21T05:45:41.108Z,53.17
2019-03-21T05:48:12.877Z,53.11
2019-03-21T05:50:44.650Z,53.18
2019-03-21T05:53:16.392Z,53.15
2019-03-21T05:55:48.283Z,53.25
2019-03-21T05:58:20.047Z,53.29
2019-03-21T06:00:51.832Z,53.28
2019-03-21T06:03:26.930Z,53.30
2019-03-21T06:06:10.298Z,53.30
2019-03-21T06:08:42.263Z,53.36
2019-03-21T06:11:14.140Z,53.37
2019-03-21T06:13:45.910Z,53.38
2019-03-21T06:16:17.742Z,53.39
2019-03-21T06:19:03.659Z,53.40
2019-03-21T06:21:49.973Z,53.42
2019-03-21T06:24:36.756Z,53.52
2019-03-21T06:27:31.339Z,53.54
2019-03-21T06:30:03.164Z,53.68
2019-03-21T06:32:34.923Z,53.76
2019-03-21T06:35:20.454Z,53.76
2019-03-21T06:37:52.899Z,53.82
2019-03-21T06:40:24.670Z,53.96
2019-03-21T06:42:56.418Z,54.06
2019-03-21T06:45:28.186Z,54.10
2019-03-21T06:48:00.010Z,54.04
2019-03-21T06:50:31.823Z,54.11
2019-03-21T06:53:03.718Z,54.04
2019-03-21T06:55:35.558Z,54.07
2019-03-21T06:58:07.338Z,54.05
2019-03-21T07:00:39.143Z,54.07
2019-03-21T07:03:10.873Z,54.08
2019-03-21T07:05:42.749Z,54.19
2019-03-21T07:08:14.513Z,54.16
2019-03-21T07:10:46.569Z,54.13
2019-03-21T07:13:18.237Z,54.14
2019-03-21T07:15:49.971Z,54.18
2019-03-21T07:18:21.871Z,54.13
2019-03-21T07:20:53.624Z,54.24
2019-03-21T07:23:25.418Z,54.34
2019-03-21T07:25:57.159Z,54.54
2019-03-21T07:28:28.869Z,54.61
2019-03-21T07:31:00.652Z,54.40
2019-03-21T07:33:32.604Z,54.43
2019-03-21T07:36:05.374Z,54.47
2019-03-21T07:38:37.164Z,54.45
2019-03-21T07:41:09.042Z,54.50
2019-03-21T07:43:40.761Z,54.48
2019-03-21T07:46:12.629Z,54.50
2019-03-21T07:48:44.347Z,54.48
2019-03-21T07:51:16.185Z,54.42
2019-03-21T07:53:47.873Z,54.38
2019-03-21T07:56:19.622Z,54.32
2019-03-21T07:58:51.321Z,54.27
2019-03-21T08:01:23.146Z,54.21
2019-03-21T08:03:54.828Z,54.17
2019-03-21T08:06:26.583Z,54.08
2019-03-21T08:08:58.274Z,54.00
2019-03-21T08:11:30.023Z,53.98
2019-03-21T08:14:01.797Z,53.91
2019-03-21T08:16:33.632Z,53.86
2019-03-21T08:19:05.406Z,53.81
2019-03-21T08:21:37.177Z,53.79
2019-03-21T08:24:08.906Z,53.73
2019-03-21T08:26:40.696Z,53.73
2019-03-21T08:29:12.500Z,53.70
2019-03-21T08:31:44.260Z,53.65
2019-03-21T08:34:16.006Z,53.62
2019-03-21T08:36:47.801Z,53.60
2019-03-21T08:39:19.567Z,53.57
2019-03-21T08:41:51.429Z,53.58
2019-03-21T08:44:23.143Z,53.53
2019-03-21T08:46:54.866Z,53.53
2019-03-21T08:49:26.613Z,53.53
2019-03-21T08:51:58.422Z,53.54
2019-03-21T08:54:30.237Z,53.54
2019-03-21T08:57:02.045Z,53.51
2019-03-21T08:59:33.798Z,53.52
2019-03-21T09:02:05.565Z,53.53
2019-03-21T09:04:37.397Z,53.48
2019-03-21T09:07:09.221Z,53.44
2019-03-21T09:09:40.972Z,53.39
2019-03-21T09:12:12.748Z,53.34
2019-03-21T09:14:44.514Z,53.30
2019-03-21T09:17:16.376Z,53.29
2019-03-21T09:19:48.131Z,53.29
2019-03-21T09:22:19.907Z,53.29
2019-03-21T09:24:51.843Z,53.32
2019-03-21T09:27:23.585Z,53.32
2019-03-21T09:29:55.410Z,53.35
2019-03-21T09:32:27.248Z,53.39
2019-03-21T09:34:58.980Z,53.42
2019-03-21T09:37:30.769Z,53.44
2019-03-21T09:40:02.607Z,53.51
2019-03-21T09:42:34.409Z,53.55
2019-03-21T09:45:06.798Z,53.69
2019-03-21T09:47:38.499Z,53.78
2019-03-21T09:50:10.423Z,53.78
2019-03-21T09:52:43.122Z,53.85
2019-03-21T09:55:14.969Z,53.89
2019-03-21T09:57:46.707Z,53.97
2019-03-21T10:00:28.199Z,54.00
2019-03-21T10:02:59.953Z,53.98
2019-03-21T10:05:31.854Z,53.98
2019-03-21T10:08:04.085Z,53.97
2019-03-21T10:10:36.175Z,53.93
2019-03-21T10:13:08.211Z,53.91
2019-03-21T10:15:39.968Z,53.86
2019-03-21T10:18:11.732Z,53.84
2019-03-21T10:20:43.544Z,53.84
2019-03-21T10:23:15.440Z,53.80
2019-03-21T10:25:47.247Z,53.81
2019-03-21T10:28:19.121Z,53.82
2019-03-21T10:30:50.821Z,53.78
2019-03-21T10:33:22.781Z,53.83
2019-03-21T10:35:54.798Z,53.78
2019-03-21T10:38:26.598Z,53.75
2019-03-21T10:40:58.467Z,53.76
2019-03-21T10:43:30.270Z,53.81
2019-03-21T10:46:02.055Z,53.80
2019-03-21T10:48:33.983Z,53.75
2019-03-21T10:51:05.950Z,53.74
2019-03-21T10:53:37.874Z,53.75
2019-03-21T10:56:09.586Z,53.70
2019-03-21T10:58:41.490Z,53.60
2019-03-21T11:01:13.205Z,53.51
2019-03-21T11:03:44.991Z,53.44
2019-03-21T11:06:16.826Z,53.43
2019-03-21T11:08:48.665Z,53.45
2019-03-21T11:11:20.454Z,53.46
2019-03-21T11:13:52.269Z,53.42
2019-03-21T11:16:24.119Z,53.31
2019-03-21T11:18:55.863Z,53.25
2019-03-21T11:21:27.616Z,53.17
2019-03-21T11:23:59.349Z,53.06
2019-03-21T11:26:31.206Z,52.97
2019-03-21T11:29:03.035Z,52.93
2019-03-21T11:31:34.796Z,52.87
2019-03-21T11:34:06.658Z,52.77
2019-03-21T11:36:38.957Z,52.70
2019-03-21T11:39:10.742Z,52.60
2019-03-21T11:41:42.496Z,52.52
2019-03-21T11:44:14.635Z,52.51
2019-03-21T11:46:46.406Z,52.46
2019-03-21T11:49:18.255Z,52.42
2019-03-21T11:51:50.057Z,52.38
2019-03-21T11:54:21.898Z,52.40
2019-03-21T11:56:53.786Z,52.27
2019-03-21T11:59:36.944Z,52.21
2019-03-21T12:01:59.196Z,52.05
2019-03-21T12:04:31.072Z,51.89
2019-03-21T12:07:02.882Z,51.81
2019-03-21T12:09:34.731Z,51.65
2019-03-21T12:12:06.553Z,51.57
2019-03-21T12:14:38.646Z,51.54
2019-03-21T12:17:12.725Z,51.47
2019-03-21T12:19:43.986Z,51.39
2019-03-21T12:22:15.706Z,51.32
2019-03-21T12:24:47.546Z,51.26
2019-03-21T12:27:20.610Z,51.19
2019-03-21T12:29:52.369Z,51.12
2019-03-21T12:32:24.222Z,51.05
2019-03-21T12:34:56.030Z,50.99
2019-03-21T12:37:27.875Z,50.81
2019-03-21T12:39:59.617Z,50.73
2019-03-21T12:42:31.622Z,50.50
2019-03-21T12:45:03.451Z,50.41
2019-03-21T12:47:35.413Z,50.37
2019-03-21T12:50:08.624Z,50.39
2019-03-21T12:55:13.902Z,50.91
2019-03-21T12:57:45.739Z,51.16
2019-03-21T13:00:24.035Z,51.41
2019-03-21T13:02:55.739Z,51.73
2019-03-21T13:05:29.096Z,51.62
2019-03-21T13:07:13.116Z,50.86
2019-03-21T13:08:00.945Z,51.05
2019-03-21T13:10:32.684Z,50.28
2019-03-21T13:13:04.746Z,49.42
2019-03-21T13:15:36.792Z,48.49
2019-03-21T13:18:09.012Z,47.80
2019-03-21T13:20:40.802Z,47.18
2019-03-21T13:23:12.554Z,46.41
2019-03-21T13:25:44.280Z,45.53
2019-03-21T13:28:15.985Z,44.59
2019-03-21T13:30:47.716Z,43.83
2019-03-21T13:33:19.446Z,43.30
2019-03-21T13:35:51.186Z,42.98
2019-03-21T13:38:23.055Z,42.14
2019-03-21T13:40:54.707Z,41.63
2019-03-21T13:43:26.593Z,41.32
2019-03-21T13:45:58.524Z,40.74
2019-03-21T13:48:30.290Z,40.06
2019-03-21T13:51:02.033Z,39.55
2019-03-21T13:53:33.916Z,39.01
2019-03-21T13:56:05.962Z,38.45
2019-03-21T13:58:37.708Z,37.83
2019-03-21T14:01:09.435Z,37.24
2019-03-21T14:03:41.225Z,36.69
2019-03-21T14:06:13.055Z,36.14
2019-03-21T14:08:44.883Z,35.64
2019-03-21T14:11:19.202Z,35.20
2019-03-21T14:13:50.517Z,34.72
2019-03-21T14:16:23.210Z,34.51
2019-03-21T14:18:55.179Z,34.10
2019-03-21T14:21:26.964Z,33.76
2019-03-21T14:23:59.837Z,33.37
2019-03-21T14:26:31.673Z,32.94
2019-03-21T14:29:12.100Z,32.72
2019-03-21T14:31:36.901Z,32.48
2019-03-21T14:34:08.663Z,32.31
2019-03-21T14:36:41.859Z,32.09
2019-03-21T14:39:13.749Z,31.97
2019-03-21T14:41:45.615Z,31.73
2019-03-21T14:44:17.420Z,31.52
2019-03-21T14:46:49.237Z,31.22
2019-03-21T14:49:21.109Z,31.00
2019-03-21T14:51:52.921Z,30.71
2019-03-21T14:54:24.864Z,30.54
2019-03-21T14:56:56.814Z,30.33
2019-03-21T14:59:28.710Z,30.21
2019-03-21T15:02:00.592Z,30.14
2019-03-21T15:04:32.478Z,30.02
2019-03-21T15:07:04.299Z,29.98
2019-03-21T15:09:36.144Z,29.84
2019-03-21T15:12:07.870Z,29.73
2019-03-21T15:14:39.762Z,29.95
2019-03-21T15:17:11.557Z,30.05
2019-03-21T15:19:43.381Z,30.03
2019-03-21T15:22:15.111Z,30.02
2019-03-21T15:24:47.106Z,30.10
2019-03-21T15:27:18.869Z,30.12
2019-03-21T15:29:50.893Z,30.15
2019-03-21T15:32:22.533Z,30.20
2019-03-21T15:34:54.369Z,30.36
2019-03-21T15:37:26.035Z,30.39
2019-03-21T15:39:57.876Z,30.52
2019-03-21T15:42:29.558Z,30.59
2019-03-21T15:45:15.672Z,30.70
2019-03-21T15:47:36.019Z,30.81
2019-03-21T15:50:09.669Z,30.99
2019-03-21T15:52:41.525Z,31.15
2019-03-21T15:55:13.433Z,31.28
2019-03-21T15:57:45.261Z,31.35
2019-03-21T16:00:21.374Z,31.46
2019-03-21T16:02:53.198Z,31.59
2019-03-21T16:05:24.966Z,31.73
2019-03-21T16:07:56.987Z,31.89
2019-03-21T16:10:28.811Z,32.06
2019-03-21T16:13:00.502Z,32.18
2019-03-21T16:15:32.807Z,32.29
2019-03-21T16:18:05.210Z,32.41
2019-03-21T16:20:37.098Z,32.49
2019-03-21T16:23:08.965Z,32.62
2019-03-21T16:25:40.765Z,32.72
2019-03-21T16:28:12.671Z,32.82
2019-03-21T16:30:44.477Z,32.94
2019-03-21T16:33:16.314Z,33.07
2019-03-21T16:35:48.103Z,33.19
2019-03-21T16:38:19.985Z,33.34
2019-03-21T16:40:51.829Z,33.52
2019-03-21T16:43:23.638Z,33.68
2019-03-21T16:45:55.426Z,33.82
2019-03-21T16:48:27.359Z,34.00
2019-03-21T16:50:59.157Z,34.16
2019-03-21T16:53:30.988Z,34.35
2019-03-21T16:56:02.904Z,34.50
2019-03-21T16:58:34.701Z,34.66
2019-03-21T17:01:06.610Z,34.86
2019-03-21T17:03:38.638Z,35.05
2019-03-21T17:06:11.417Z,35.23
2019-03-21T17:08:43.271Z,35.43
2019-03-21T17:11:15.122Z,35.62
2019-03-21T17:13:47.222Z,35.79
2019-03-21T17:16:20.055Z,35.97
2019-03-21T17:18:51.938Z,36.16
2019-03-21T17:21:23.977Z,36.35
2019-03-21T17:23:55.873Z,36.50
2019-03-21T17:26:27.642Z,36.68
2019-03-21T17:29:00.445Z,36.88
2019-03-21T17:31:32.286Z,37.05
2019-03-21T17:34:04.346Z,37.24
2019-03-21T17:36:36.083Z,37.39
2019-03-21T17:39:09.399Z,37.56
2019-03-21T17:41:43.342Z,37.76
2019-03-21T17:44:14.981Z,37.92
2019-03-21T17:46:46.949Z,38.13
2019-03-21T17:49:18.778Z,38.29
2019-03-21T17:51:50.693Z,38.49
2019-03-21T17:54:22.402Z,38.64
2019-03-21T17:56:54.404Z,38.81
2019-03-21T17:59:26.309Z,38.99
2019-03-21T18:01:58.309Z,39.15
2019-03-21T18:04:30.241Z,39.31
2019-03-21T18:07:02.118Z,39.44
2019-03-21T18:09:33.984Z,39.61
2019-03-21T18:12:05.881Z,39.78
2019-03-21T18:14:37.678Z,39.94
2019-03-21T18:17:09.400Z,40.12
2019-03-21T18:19:41.147Z,40.26
2019-03-21T18:22:12.957Z,40.42
2019-03-21T18:24:53.802Z,40.57
2019-03-21T18:27:18.235Z,40.70
2019-03-21T18:29:50.002Z,40.84
2019-03-21T18:32:21.895Z,40.97
2019-03-21T18:34:55.227Z,41.10
2019-03-21T18:37:27.675Z,41.23
2019-03-21T18:40:00.967Z,41.37
2019-03-21T18:42:33.478Z,41.52
2019-03-21T18:45:06.299Z,41.68
2019-03-21T18:47:38.131Z,41.79
2019-03-21T18:50:10.263Z,41.91
2019-03-21T18:52:42.614Z,42.03
2019-03-21T18:55:14.749Z,42.18
2019-03-21T18:57:46.579Z,42.29
2019-03-21T19:00:18.540Z,42.41
2019-03-21T19:02:50.736Z,42.52
2019-03-21T19:05:22.544Z,42.63
2019-03-21T19:07:55.135Z,42.70
2019-03-21T19:10:27.936Z,42.82
2019-03-21T19:12:59.776Z,42.92
2019-03-21T19:15:31.542Z,43.01
2019-03-21T19:18:03.382Z,43.13
2019-03-21T19:20:35.254Z,43.25
2019-03-21T19:23:08.302Z,43.37
2019-03-21T19:25:41.009Z,43.50
2019-03-21T19:28:13.216Z,43.62
2019-03-21T19:30:47.678Z,43.72
2019-03-21T19:33:21.258Z,43.82
2019-03-21T19:35:54.807Z,43.91
2019-03-21T19:38:27.692Z,43.98
2019-03-21T19:40:59.726Z,44.06
2019-03-21T19:43:31.576Z,44.19
2019-03-21T19:46:04.833Z,44.31
2019-03-21T19:48:45.688Z,44.41
2019-03-21T19:51:11.568Z,44.52
2019-03-21T19:53:44.157Z,44.62
2019-03-21T19:56:16.082Z,44.71
2019-03-21T19:58:47.764Z,44.82
2019-03-21T20:01:19.757Z,44.93
2019-03-21T20:03:52.017Z,45.02
2019-03-21T20:06:23.930Z,45.13
2019-03-21T20:08:57.011Z,45.22
2019-03-21T20:11:29.057Z,45.30
2019-03-21T20:14:03.750Z,45.40
2019-03-21T20:16:34.510Z,45.46
2019-03-21T20:19:06.364Z,45.52
2019-03-21T20:21:47.336Z,45.58
2019-03-21T20:24:12.991Z,45.64
2019-03-21T20:26:46.559Z,45.72
2019-03-21T20:29:18.687Z,45.78
2019-03-21T20:31:50.519Z,45.88
2019-03-21T20:34:22.352Z,45.95
2019-03-21T20:36:54.258Z,46.04
2019-03-21T20:39:26.235Z,46.14
2019-03-21T20:41:58.088Z,46.24
2019-03-21T20:44:29.874Z,46.32
2019-03-21T20:47:01.578Z,46.39
2019-03-21T20:49:33.374Z,46.48
2019-03-21T20:52:06.096Z,46.54
2019-03-21T20:54:37.818Z,46.67
2019-03-21T20:57:09.707Z,46.77
2019-03-21T20:59:41.530Z,46.84
2019-03-21T21:02:13.429Z,46.90
2019-03-21T21:04:45.189Z,46.97
2019-03-21T21:07:18.023Z,47.06
2019-03-21T21:09:52.716Z,47.15
2019-03-21T21:12:24.805Z,47.23
2019-03-21T21:14:56.627Z,47.30
2019-03-21T21:17:28.443Z,47.37
2019-03-21T21:20:00.420Z,47.38
2019-03-21T21:22:32.266Z,47.46
2019-03-21T21:25:04.535Z,47.51
2019-03-21T21:27:48.175Z,47.57
2019-03-21T21:30:11.313Z,47.65
2019-03-21T21:32:43.208Z,47.73
2019-03-21T21:35:15.300Z,47.82
2019-03-21T21:37:47.274Z,47.90
2019-03-21T21:40:19.434Z,47.99
2019-03-21T21:42:52.320Z,48.04
2019-03-21T21:45:24.227Z,48.10
2019-03-21T21:47:56.636Z,48.14
2019-03-21T21:50:28.490Z,48.23
2019-03-21T21:53:00.348Z,48.28
2019-03-21T21:55:32.248Z,48.34
2019-03-21T21:58:04.066Z,48.39
2019-03-21T22:00:35.965Z,48.44
2019-03-21T22:03:07.679Z,48.53
